createdAt,value
2022-08-19T00:02:04.063Z,25.41
2022-08-19T00:04:35.857Z,25.52
2022-08-19T00:07:04.895Z,25.45
2022-08-19T00:09:31.887Z,25.36
2022-08-19T00:11:59.696Z,25.39
2022-08-19T00:14:28.008Z,25.35
2022-08-19T00:16:55.613Z,25.41
2022-08-19T00:19:23.357Z,25.34
2022-08-19T00:21:50.409Z,25.29
2022-08-19T00:24:17.487Z,25.34
2022-08-19T00:26:46.268Z,25.34
2022-08-19T00:29:16.043Z,25.33
2022-08-19T00:31:44.065Z,25.23
2022-08-19T00:34:13.004Z,25.11
2022-08-19T00:36:40.961Z,25.10
2022-08-19T00:39:08.531Z,25.14
2022-08-19T00:41:35.493Z,25.01
2022-08-19T00:44:12.267Z,25.06
2022-08-19T00:46:42.320Z,25.02
2022-08-19T00:49:17.971Z,24.93
2022-08-19T00:51:47.819Z,24.86
2022-08-19T00:54:16.017Z,24.83
2022-08-19T00:56:43.556Z,24.83
2022-08-19T00:59:11.407Z,24.78
2022-08-19T01:01:42.050Z,24.69
2022-08-19T01:04:09.306Z,24.65
2022-08-19T01:06:39.004Z,24.59
2022-08-19T01:09:06.683Z,24.56
2022-08-19T01:11:36.632Z,24.60
2022-08-19T01:14:04.806Z,24.61
2022-08-19T01:16:33.900Z,24.58
2022-08-19T01:19:01.375Z,24.58
2022-08-19T01:21:41.459Z,24.55
2022-08-19T01:24:08.431Z,24.52
2022-08-19T01:26:42.656Z,24.51
2022-08-19T01:29:11.491Z,24.66
2022-08-19T01:31:40.356Z,24.65
2022-08-19T01:34:07.986Z,24.64
2022-08-19T01:36:42.937Z,24.46
2022-08-19T01:39:13.749Z,24.56
2022-08-19T01:41:40.943Z,24.46
2022-08-19T01:44:18.734Z,24.38
2022-08-19T01:46:48.543Z,24.45
2022-08-19T01:49:16.871Z,24.37
2022-08-19T01:51:43.743Z,24.26
2022-08-19T01:54:13.507Z,24.24
2022-08-19T01:56:40.256Z,24.21
2022-08-19T01:59:12.780Z,24.13
2022-08-19T02:01:39.802Z,24.30
2022-08-19T02:04:06.818Z,24.27
2022-08-19T02:06:34.141Z,24.27
2022-08-19T02:09:01.363Z,24.18
2022-08-19T02:11:34.550Z,23.99
2022-08-19T02:14:03.128Z,24.16
2022-08-19T02:16:31.395Z,24.24
2022-08-19T02:19:01.497Z,24.11
2022-08-19T02:21:29.964Z,23.90
2022-08-19T02:23:57.891Z,23.82
2022-08-19T02:26:27.436Z,23.79
2022-08-19T02:28:55.540Z,23.69
2022-08-19T02:31:25.639Z,23.70
2022-08-19T02:33:56.740Z,23.61
2022-08-19T02:36:25.795Z,23.59
2022-08-19T02:38:54.345Z,23.65
2022-08-19T02:41:28.288Z,23.67
2022-08-19T02:44:29.391Z,23.57
2022-08-19T02:46:47.941Z,23.67
2022-08-19T02:49:17.558Z,23.65
2022-08-19T02:51:46.660Z,23.66
2022-08-19T02:54:14.936Z,23.65
2022-08-19T02:56:44.376Z,23.53
2022-08-19T02:59:12.089Z,23.48
2022-08-19T03:01:42.485Z,23.45
2022-08-19T03:04:13.971Z,23.48
2022-08-19T03:06:43.651Z,23.45
2022-08-19T03:09:11.056Z,23.46
2022-08-19T03:11:38.426Z,23.42
2022-08-19T03:14:07.968Z,23.48
2022-08-19T03:16:50.711Z,23.40
2022-08-19T03:19:20.014Z,23.38
2022-08-19T03:21:47.176Z,23.41
2022-08-19T03:24:15.639Z,23.32
2022-08-19T03:26:48.852Z,23.35
2022-08-19T03:29:28.332Z,23.31
2022-08-19T03:32:01.950Z,23.20
2022-08-19T03:34:35.154Z,23.18
2022-08-19T03:37:07.364Z,23.23
2022-08-19T03:39:36.504Z,23.27
2022-08-19T03:42:31.916Z,23.16
2022-08-19T03:44:50.633Z,23.15
2022-08-19T03:47:17.923Z,23.23
2022-08-19T03:49:45.634Z,23.19
2022-08-19T03:52:12.586Z,23.13
2022-08-19T03:54:39.642Z,23.18
2022-08-19T03:57:07.161Z,23.10
2022-08-19T03:59:36.279Z,23.11
2022-08-19T04:02:10.000Z,23.08
2022-08-19T04:04:39.754Z,23.03
2022-08-19T04:07:07.317Z,23.07
2022-08-19T04:09:35.393Z,23.13
2022-08-19T04:12:02.219Z,23.07
2022-08-19T04:14:34.618Z,23.11
2022-08-19T04:17:04.425Z,23.11
2022-08-19T04:19:31.811Z,23.16
2022-08-19T04:21:59.518Z,23.17
2022-08-19T04:24:26.392Z,23.23
2022-08-19T04:26:53.870Z,23.30
2022-08-19T04:29:25.816Z,23.35
2022-08-19T04:31:54.995Z,23.35
2022-08-19T04:34:25.148Z,23.40
2022-08-19T04:36:56.576Z,23.40
2022-08-19T04:39:49.899Z,23.48
2022-08-19T04:42:37.060Z,23.51
2022-08-19T04:45:06.443Z,23.48
2022-08-19T04:47:47.857Z,23.50
2022-08-19T04:50:27.261Z,23.57
2022-08-19T04:52:56.518Z,23.61
2022-08-19T04:55:26.614Z,23.63
2022-08-19T04:57:55.071Z,23.66
2022-08-19T05:00:22.243Z,23.75
2022-08-19T05:02:50.135Z,23.79
2022-08-19T05:05:18.099Z,23.81
2022-08-19T05:07:44.883Z,23.89
2022-08-19T05:10:12.545Z,23.97
2022-08-19T05:12:40.051Z,23.97
2022-08-19T05:15:09.411Z,23.98
2022-08-19T05:17:38.869Z,24.06
2022-08-19T05:20:26.740Z,24.16
2022-08-19T05:22:53.826Z,24.21
2022-08-19T05:25:22.721Z,24.27
2022-08-19T05:27:49.904Z,24.30
2022-08-19T05:30:17.703Z,24.31
2022-08-19T05:32:44.739Z,24.42
2022-08-19T05:35:12.451Z,24.49
2022-08-19T05:37:41.434Z,24.58
2022-08-19T05:40:10.333Z,24.66
2022-08-19T05:42:37.801Z,24.74
2022-08-19T05:45:05.513Z,24.76
2022-08-19T05:47:33.241Z,24.91
2022-08-19T05:50:02.760Z,25.00
2022-08-19T05:52:32.653Z,25.09
2022-08-19T05:55:00.815Z,25.16
2022-08-19T05:57:29.900Z,25.18
2022-08-19T05:59:59.095Z,25.29
2022-08-19T06:02:28.067Z,25.39
2022-08-19T06:04:54.916Z,25.49
2022-08-19T06:07:21.893Z,25.55
2022-08-19T06:09:48.909Z,25.62
2022-08-19T06:12:29.889Z,25.73
2022-08-19T06:15:01.685Z,25.81
2022-08-19T06:17:32.730Z,25.85
2022-08-19T06:20:00.213Z,25.91
2022-08-19T06:22:28.180Z,26.06
2022-08-19T06:24:56.281Z,26.13
2022-08-19T06:27:24.134Z,26.26
2022-08-19T06:29:51.200Z,26.30
2022-08-19T06:32:22.433Z,26.45
2022-08-19T06:34:49.433Z,26.47
2022-08-19T06:37:16.496Z,26.65
2022-08-19T06:39:44.906Z,26.74
2022-08-19T06:42:14.371Z,26.83
2022-08-19T06:44:48.115Z,26.94
2022-08-19T06:47:22.999Z,27.14
2022-08-19T06:50:01.005Z,27.20
2022-08-19T06:52:28.753Z,27.32
2022-08-19T06:54:57.172Z,27.34
2022-08-19T06:57:27.278Z,27.46
2022-08-19T06:59:54.384Z,27.62
2022-08-19T07:02:21.755Z,27.75
2022-08-19T07:04:48.855Z,27.87
2022-08-19T07:07:22.098Z,27.96
2022-08-19T07:09:58.313Z,28.06
2022-08-19T07:12:31.738Z,28.24
2022-08-19T07:14:59.088Z,28.42
2022-08-19T07:17:28.113Z,28.34
2022-08-19T07:19:56.239Z,28.45
2022-08-19T07:22:26.073Z,28.57
2022-08-19T07:24:53.580Z,28.60
2022-08-19T07:27:24.283Z,28.66
2022-08-19T07:29:56.113Z,28.80
2022-08-19T07:32:27.677Z,28.90
2022-08-19T07:34:55.317Z,28.98
2022-08-19T07:37:32.446Z,29.10
2022-08-19T07:40:01.555Z,29.21
2022-08-19T07:42:30.720Z,29.32
2022-08-19T07:44:58.825Z,29.46
2022-08-19T07:47:48.074Z,29.56
2022-08-19T07:50:12.974Z,29.71
2022-08-19T07:52:40.842Z,29.79
2022-08-19T07:55:13.596Z,29.97
2022-08-19T07:57:59.552Z,30.15
2022-08-19T08:00:27.243Z,30.33
2022-08-19T08:02:55.255Z,30.44
2022-08-19T08:05:43.915Z,30.66
2022-08-19T08:08:30.644Z,30.89
2022-08-19T08:10:57.687Z,31.13
2022-08-19T08:13:26.505Z,31.25
2022-08-19T08:15:56.084Z,31.50
2022-08-19T08:18:27.709Z,31.62
2022-08-19T08:20:56.485Z,31.78
2022-08-19T08:23:25.970Z,31.90
2022-08-19T08:25:56.027Z,31.92
2022-08-19T08:28:23.348Z,32.06
2022-08-19T08:30:51.252Z,32.09
2022-08-19T08:33:29.892Z,32.32
2022-08-19T08:36:03.757Z,32.29
2022-08-19T08:38:38.959Z,32.38
2022-08-19T08:41:27.057Z,32.57
2022-08-19T08:43:55.142Z,32.49
2022-08-19T08:46:41.151Z,32.66
2022-08-19T08:49:14.223Z,32.83
2022-08-19T08:51:56.061Z,32.72
2022-08-19T08:54:32.920Z,32.86
2022-08-19T08:57:05.051Z,32.81
2022-08-19T08:59:38.128Z,33.10
2022-08-19T09:02:05.600Z,33.22
2022-08-19T09:04:32.671Z,33.16
2022-08-19T09:07:34.848Z,33.31
2022-08-19T09:10:08.048Z,33.44
2022-08-19T09:12:44.666Z,33.66
2022-08-19T09:15:15.814Z,33.82
2022-08-19T09:17:42.770Z,34.03
2022-08-19T09:20:10.304Z,33.97
2022-08-19T09:22:39.526Z,33.93
2022-08-19T09:25:08.623Z,34.21
2022-08-19T09:27:42.477Z,34.30
2022-08-19T09:30:24.781Z,34.19
2022-08-19T09:32:55.453Z,34.38
2022-08-19T09:35:26.404Z,34.61
2022-08-19T09:37:59.828Z,34.93
2022-08-19T09:40:30.307Z,35.25
2022-08-19T09:42:58.690Z,35.17
2022-08-19T09:45:25.515Z,35.13
2022-08-19T09:47:54.580Z,35.41
2022-08-19T09:50:23.187Z,35.42
2022-08-19T09:52:55.034Z,35.38
2022-08-19T09:55:31.984Z,35.51
2022-08-19T09:58:01.165Z,35.77
2022-08-19T10:00:28.256Z,36.14
2022-08-19T10:02:55.008Z,36.20
2022-08-19T10:05:42.164Z,35.99
2022-08-19T10:08:13.513Z,36.09
2022-08-19T10:10:46.744Z,36.12
2022-08-19T10:13:16.450Z,36.02
2022-08-19T10:15:47.225Z,36.10
2022-08-19T10:18:17.703Z,36.30
2022-08-19T10:20:46.615Z,36.33
2022-08-19T10:23:20.854Z,36.43
2022-08-19T10:25:48.848Z,36.62
2022-08-19T10:28:15.673Z,36.54
2022-08-19T10:30:42.991Z,36.75
2022-08-19T10:33:10.999Z,36.78
2022-08-19T10:35:42.810Z,36.89
2022-08-19T10:38:29.948Z,36.85
2022-08-19T10:40:59.637Z,37.01
2022-08-19T10:43:26.576Z,37.00
2022-08-19T10:45:57.375Z,37.27
2022-08-19T10:48:24.180Z,37.47
2022-08-19T10:51:09.335Z,37.45
2022-08-19T10:53:36.135Z,37.69
2022-08-19T10:56:21.888Z,38.06
2022-08-19T10:58:49.390Z,37.94
2022-08-19T11:01:16.412Z,37.99
2022-08-19T11:03:43.222Z,38.00
2022-08-19T11:06:10.033Z,38.31
2022-08-19T11:08:41.803Z,38.21
2022-08-19T11:11:09.844Z,38.08
2022-08-19T11:13:39.540Z,38.16
2022-08-19T11:16:16.865Z,37.99
2022-08-19T11:18:46.448Z,38.10
2022-08-19T11:21:21.066Z,38.21
2022-08-19T11:23:55.436Z,38.15
2022-08-19T11:26:22.967Z,38.46
2022-08-19T11:28:52.890Z,39.12
2022-08-19T11:31:21.757Z,38.92
2022-08-19T11:33:54.803Z,39.37
2022-08-19T11:36:22.975Z,39.55
2022-08-19T11:38:50.979Z,39.59
2022-08-19T11:41:21.401Z,39.64
2022-08-19T11:43:48.127Z,39.71
2022-08-19T11:46:17.018Z,39.58
2022-08-19T11:48:44.531Z,39.72
2022-08-19T11:51:16.722Z,39.85
2022-08-19T11:53:43.315Z,39.23
2022-08-19T11:56:10.311Z,39.35
2022-08-19T11:58:37.362Z,39.64
2022-08-19T12:01:18.660Z,40.20
2022-08-19T12:03:47.432Z,40.34
2022-08-19T12:06:17.083Z,40.21
2022-08-19T12:08:44.979Z,39.57
2022-08-19T12:11:14.654Z,40.14
2022-08-19T12:13:45.885Z,40.34
2022-08-19T12:16:18.003Z,40.71
2022-08-19T12:18:48.826Z,40.52
2022-08-19T12:21:17.917Z,40.04
2022-08-19T12:23:50.765Z,39.41
2022-08-19T12:26:19.682Z,39.13
2022-08-19T12:28:46.893Z,39.15
2022-08-19T12:31:13.652Z,39.36
2022-08-19T12:33:42.481Z,39.95
2022-08-19T12:36:12.420Z,40.17
2022-08-19T12:38:39.971Z,39.70
2022-08-19T12:41:09.976Z,39.34
2022-08-19T12:43:38.590Z,39.02
2022-08-19T12:46:06.851Z,39.11
2022-08-19T12:48:38.480Z,39.32
2022-08-19T12:51:09.066Z,39.46
2022-08-19T12:53:39.388Z,38.83
2022-08-19T12:56:12.476Z,39.09
2022-08-19T12:58:49.082Z,39.34
2022-08-19T13:01:22.746Z,40.01
2022-08-19T13:03:53.483Z,39.09
2022-08-19T13:06:22.512Z,39.14
2022-08-19T13:08:49.610Z,39.29
2022-08-19T13:11:20.148Z,39.12
2022-08-19T13:13:49.556Z,39.86
2022-08-19T13:16:16.879Z,40.00
2022-08-19T13:18:48.279Z,39.45
2022-08-19T13:21:15.277Z,39.47
2022-08-19T13:23:42.840Z,39.32
2022-08-19T13:26:11.255Z,39.78
2022-08-19T13:28:56.938Z,40.32
2022-08-19T13:31:45.164Z,40.55
2022-08-19T13:34:13.061Z,39.46
2022-08-19T13:36:40.190Z,39.61
2022-08-19T13:39:09.381Z,39.24
2022-08-19T13:41:37.146Z,38.60
2022-08-19T13:44:05.501Z,39.54
2022-08-19T13:46:32.304Z,40.19
2022-08-19T13:48:59.266Z,39.86
2022-08-19T13:51:26.316Z,39.77
2022-08-19T13:53:53.166Z,39.52
2022-08-19T13:56:24.130Z,40.28
2022-08-19T13:58:54.391Z,39.04
2022-08-19T14:01:24.360Z,38.75
2022-08-19T14:03:51.800Z,39.95
2022-08-19T14:06:19.919Z,40.97
2022-08-19T14:08:47.517Z,41.00
2022-08-19T14:11:14.560Z,39.87
2022-08-19T14:13:41.960Z,39.00
2022-08-19T14:16:11.580Z,38.01
2022-08-19T14:18:39.458Z,37.83
2022-08-19T14:21:07.665Z,37.01
2022-08-19T14:23:37.007Z,36.67
2022-08-19T14:26:16.082Z,37.42
2022-08-19T14:28:44.299Z,36.96
2022-08-19T14:31:13.686Z,37.91
2022-08-19T14:33:41.412Z,38.20
2022-08-19T14:36:08.411Z,36.83
2022-08-19T14:38:35.461Z,37.66
2022-08-19T14:41:17.996Z,38.04
2022-08-19T14:43:47.397Z,37.13
2022-08-19T14:46:17.038Z,37.00
2022-08-19T14:48:44.435Z,35.99
2022-08-19T14:51:11.704Z,35.06
2022-08-19T14:53:38.753Z,33.97
2022-08-19T14:56:14.685Z,33.69
2022-08-19T14:58:43.649Z,33.47
2022-08-19T15:01:12.135Z,32.85
2022-08-19T15:03:40.338Z,32.62
2022-08-19T15:06:07.875Z,31.91
2022-08-19T15:08:37.810Z,31.84
2022-08-19T15:11:10.753Z,31.62
2022-08-19T15:13:38.006Z,31.51
2022-08-19T15:16:05.250Z,31.65
2022-08-19T15:18:33.560Z,31.63
2022-08-19T15:21:00.532Z,31.35
2022-08-19T15:23:27.815Z,31.35
2022-08-19T15:25:56.526Z,31.11
2022-08-19T15:28:28.354Z,31.07
2022-08-19T15:30:55.189Z,30.98
2022-08-19T15:33:22.019Z,30.94
2022-08-19T15:35:51.593Z,30.94
2022-08-19T15:38:24.389Z,30.82
2022-08-19T15:40:51.675Z,30.78
2022-08-19T15:43:21.704Z,30.76
2022-08-19T15:45:49.529Z,30.72
2022-08-19T15:48:17.049Z,30.74
2022-08-19T15:50:43.819Z,30.83
2022-08-19T15:53:11.284Z,30.46
2022-08-19T15:55:45.069Z,30.37
2022-08-19T15:58:33.541Z,30.41
2022-08-19T16:01:27.140Z,30.46
2022-08-19T16:04:17.900Z,30.40
2022-08-19T16:06:49.139Z,30.22
2022-08-19T16:09:17.465Z,30.26
2022-08-19T16:11:46.076Z,30.25
2022-08-19T16:14:18.578Z,30.22
2022-08-19T16:16:47.215Z,30.19
2022-08-19T16:19:17.179Z,30.22
2022-08-19T16:21:46.836Z,30.21
2022-08-19T16:24:15.519Z,30.17
2022-08-19T16:26:43.780Z,30.11
2022-08-19T16:29:12.112Z,30.11
2022-08-19T16:31:41.582Z,30.14
2022-08-19T16:34:08.632Z,30.09
2022-08-19T16:36:35.741Z,30.01
2022-08-19T16:39:03.725Z,29.98
2022-08-19T16:41:30.700Z,29.96
2022-08-19T16:43:57.603Z,29.88
2022-08-19T16:46:26.834Z,29.85
2022-08-19T16:48:54.677Z,29.84
2022-08-19T16:51:22.874Z,29.82
2022-08-19T16:53:52.465Z,29.85
2022-08-19T16:56:21.180Z,29.78
2022-08-19T16:58:50.499Z,29.81
2022-08-19T17:01:18.208Z,29.73
2022-08-19T17:03:45.386Z,29.88
2022-08-19T17:06:20.790Z,29.78
2022-08-19T17:08:52.739Z,29.74
2022-08-19T17:11:21.130Z,29.66
2022-08-19T17:13:50.324Z,29.59
2022-08-19T17:16:19.803Z,29.59
2022-08-19T17:18:46.537Z,29.57
2022-08-19T17:21:13.414Z,29.50
2022-08-19T17:23:42.646Z,29.32
2022-08-19T17:26:11.476Z,29.12
2022-08-19T17:28:44.745Z,29.15
2022-08-19T17:31:11.760Z,28.96
2022-08-19T17:33:41.274Z,28.87
2022-08-19T17:36:09.060Z,28.84
2022-08-19T17:38:37.680Z,28.72
2022-08-19T17:41:04.805Z,28.71
2022-08-19T17:43:40.107Z,28.51
2022-08-19T17:46:18.753Z,28.45
2022-08-19T17:48:55.125Z,28.45
2022-08-19T17:51:27.111Z,28.32
2022-08-19T17:53:54.660Z,28.19
2022-08-19T17:56:22.104Z,28.24
2022-08-19T17:58:57.750Z,28.14
2022-08-19T18:01:43.013Z,27.99
2022-08-19T18:04:17.166Z,27.96
2022-08-19T18:06:46.577Z,28.01
2022-08-19T18:09:28.759Z,27.94
2022-08-19T18:12:06.938Z,27.95
2022-08-19T18:14:36.418Z,27.99
2022-08-19T18:17:09.917Z,28.07
2022-08-19T18:19:41.544Z,28.10
2022-08-19T18:22:12.172Z,28.30
2022-08-19T18:24:41.670Z,28.46
2022-08-19T18:27:10.008Z,28.38
2022-08-19T18:29:38.425Z,28.19
2022-08-19T18:32:12.563Z,27.99
2022-08-19T18:34:43.433Z,28.05
2022-08-19T18:37:11.024Z,27.84
2022-08-19T18:39:57.066Z,27.79
2022-08-19T18:42:42.847Z,27.69
2022-08-19T18:45:29.187Z,27.49
2022-08-19T18:48:26.490Z,27.33
2022-08-19T18:53:34.712Z,26.81
2022-08-19T18:56:02.228Z,26.56
2022-08-19T18:58:34.685Z,26.52
2022-08-19T19:01:14.870Z,26.13
2022-08-19T19:03:47.693Z,25.96
2022-08-19T19:06:21.788Z,25.65
2022-08-19T19:08:50.421Z,25.56
2022-08-19T19:11:24.525Z,25.62
2022-08-19T19:13:51.863Z,25.60
2022-08-19T19:16:23.720Z,25.58
2022-08-19T19:18:52.656Z,25.53
2022-08-19T19:21:23.052Z,25.57
2022-08-19T19:23:50.791Z,25.66
2022-08-19T19:26:17.995Z,25.84
2022-08-19T19:28:47.882Z,25.85
2022-08-19T19:31:18.907Z,25.90
2022-08-19T19:33:46.349Z,25.92
2022-08-19T19:36:14.015Z,25.95
2022-08-19T19:38:48.286Z,26.02
2022-08-19T19:41:18.592Z,26.10
2022-08-19T19:43:45.339Z,26.02
2022-08-19T19:46:12.541Z,25.97
2022-08-19T19:48:39.522Z,25.84
2022-08-19T19:51:06.397Z,25.92
2022-08-19T19:53:33.852Z,25.74
2022-08-19T19:56:02.474Z,25.21
2022-08-19T19:58:31.229Z,25.32
2022-08-19T20:00:59.280Z,25.30
2022-08-19T20:03:27.206Z,25.25
2022-08-19T20:05:54.922Z,25.47
2022-08-19T20:08:40.599Z,25.70
2022-08-19T20:11:07.872Z,25.62
2022-08-19T20:13:35.326Z,25.43
2022-08-19T20:16:05.934Z,24.97
2022-08-19T20:18:32.883Z,24.94
2022-08-19T20:21:00.080Z,24.95
2022-08-19T20:23:27.083Z,24.68
2022-08-19T20:25:54.439Z,24.32
2022-08-19T20:28:22.911Z,23.96
2022-08-19T20:30:50.351Z,23.62
2022-08-19T20:33:17.614Z,23.40
2022-08-19T20:35:45.311Z,23.07
2022-08-19T20:38:12.608Z,22.71
2022-08-19T20:40:41.086Z,22.30
2022-08-19T20:43:10.738Z,22.11
2022-08-19T20:45:38.240Z,21.96
2022-08-19T20:48:07.487Z,21.90
2022-08-19T20:50:36.006Z,21.71
2022-08-19T20:53:13.989Z,21.59
2022-08-19T20:55:44.466Z,21.50
2022-08-19T20:58:13.425Z,21.45
2022-08-19T21:00:41.618Z,21.56
2022-08-19T21:03:08.640Z,21.56
2022-08-19T21:05:36.102Z,21.45
2022-08-19T21:08:04.666Z,21.54
2022-08-19T21:10:32.633Z,21.60
2022-08-19T21:12:59.424Z,21.58
2022-08-19T21:15:26.553Z,21.65
2022-08-19T21:17:53.698Z,21.61
2022-08-19T21:20:20.766Z,21.56
2022-08-19T21:22:47.567Z,21.58
2022-08-19T21:25:16.459Z,21.70
2022-08-19T21:27:43.492Z,21.57
2022-08-19T21:30:11.162Z,21.64
2022-08-19T21:32:38.128Z,21.55
2022-08-19T21:35:05.257Z,21.61
2022-08-19T21:37:34.845Z,21.62
2022-08-19T21:40:01.907Z,21.72
2022-08-19T21:42:28.721Z,21.91
2022-08-19T21:44:55.488Z,21.99
2022-08-19T21:47:22.429Z,21.92
2022-08-19T21:49:49.228Z,21.91
2022-08-19T21:52:22.195Z,21.98
2022-08-19T21:54:49.154Z,22.08
2022-08-19T21:57:15.891Z,22.10
2022-08-19T21:59:44.102Z,22.21
2022-08-19T22:02:21.490Z,22.35
2022-08-19T22:04:53.007Z,22.13
2022-08-19T22:07:21.997Z,22.01
2022-08-19T22:09:50.699Z,22.10
2022-08-19T22:12:34.646Z,22.10
2022-08-19T22:15:02.028Z,22.06
2022-08-19T22:17:29.964Z,22.11
2022-08-19T22:19:57.155Z,22.12
2022-08-19T22:22:27.696Z,22.12
2022-08-19T22:25:00.253Z,22.22
2022-08-19T22:27:28.142Z,22.34
2022-08-19T22:29:55.457Z,22.21
2022-08-19T22:32:28.296Z,22.25
2022-08-19T22:34:58.681Z,22.25
2022-08-19T22:37:28.878Z,22.11
2022-08-19T22:39:56.057Z,22.08
2022-08-19T22:42:23.520Z,22.04
2022-08-19T22:44:50.270Z,22.07
2022-08-19T22:47:17.515Z,22.12
2022-08-19T22:49:44.933Z,22.21
2022-08-19T22:52:17.647Z,22.17
2022-08-19T22:54:53.426Z,22.11
2022-08-19T22:57:21.997Z,22.23
2022-08-19T22:59:50.619Z,22.24
2022-08-19T23:02:26.313Z,22.12
2022-08-19T23:04:54.368Z,22.10
2022-08-19T23:07:23.649Z,21.92
2022-08-19T23:09:51.139Z,22.09
2022-08-19T23:12:30.616Z,22.12
2022-08-19T23:15:09.118Z,22.02
2022-08-19T23:17:37.020Z,22.00
2022-08-19T23:20:05.589Z,21.84
2022-08-19T23:22:32.900Z,21.82
2022-08-19T23:25:11.997Z,21.61
2022-08-19T23:27:57.384Z,21.67
2022-08-19T23:30:27.469Z,21.62
2022-08-19T23:33:12.319Z,21.68
2022-08-19T23:35:41.704Z,21.67
2022-08-19T23:38:09.870Z,21.74
2022-08-19T23:40:38.766Z,21.79
2022-08-19T23:43:08.204Z,21.75
2022-08-19T23:45:50.905Z,21.80
2022-08-19T23:48:18.704Z,21.77
2022-08-19T23:50:46.148Z,21.73
2022-08-19T23:53:13.239Z,21.77
2022-08-19T23:55:43.953Z,21.73
2022-08-19T23:58:13.793Z,21.75
